createdAt,value
2022-09-21T00:01:35.911Z,23.33
2022-09-21T00:04:05.036Z,24.67
2022-09-21T00:06:34.678Z,31.73
2022-09-21T00:09:05.165Z,27.15
2022-09-21T00:11:35.358Z,31.35
2022-09-21T00:14:07.194Z,32.15
2022-09-21T00:16:35.983Z,32.47
2022-09-21T00:19:04.413Z,26.35
2022-09-21T00:21:34.267Z,29.50
2022-09-21T00:24:03.524Z,33.95
2022-09-21T00:26:32.099Z,34.10
2022-09-21T00:29:04.067Z,32.58
2022-09-21T00:31:34.120Z,37.42
2022-09-21T00:34:03.472Z,35.10
2022-09-21T00:36:31.270Z,35.53
2022-09-21T00:39:01.709Z,35.92
2022-09-21T00:41:31.072Z,31.50
2022-09-21T00:44:25.771Z,36.10
2022-09-21T00:46:56.614Z,37.75
2022-09-21T00:49:26.372Z,43.97
2022-09-21T00:51:54.995Z,37.65
2022-09-21T00:54:27.003Z,38.55
2022-09-21T00:56:56.586Z,41.67
2022-09-21T00:59:29.948Z,37.42
2022-09-21T01:01:59.754Z,42.33
2022-09-21T01:04:29.191Z,37.88
2022-09-21T01:06:58.739Z,39.85
2022-09-21T01:09:27.674Z,49.55
2022-09-21T01:12:08.000Z,43.05
2022-09-21T01:15:09.158Z,51.08
2022-09-21T01:17:45.879Z,49.60
2022-09-21T01:20:41.056Z,56.97
2022-09-21T01:23:27.244Z,58.88
2022-09-21T01:26:08.444Z,61.03
2022-09-21T01:29:09.267Z,48.47
2022-09-21T01:31:42.509Z,56.45
2022-09-21T01:34:16.934Z,55.10
2022-09-21T01:36:49.268Z,50.42
2022-09-21T01:39:20.691Z,49.28
2022-09-21T01:41:51.881Z,51.72
2022-09-21T01:44:22.815Z,50.47
2022-09-21T01:46:53.852Z,51.63
2022-09-21T01:49:26.240Z,52.63
2022-09-21T01:51:59.628Z,56.55
2022-09-21T01:54:34.120Z,57.40
2022-09-21T01:57:07.380Z,51.13
2022-09-21T01:59:44.074Z,57.83
2022-09-21T02:02:18.001Z,51.30
2022-09-21T02:04:45.973Z,48.58
2022-09-21T02:07:14.037Z,55.60
2022-09-21T02:09:41.749Z,56.55
2022-09-21T02:12:10.582Z,55.50
2022-09-21T02:14:39.688Z,47.25
2022-09-21T02:17:25.446Z,47.50
2022-09-21T02:20:00.023Z,55.47
2022-09-21T02:22:36.107Z,55.40
2022-09-21T02:25:09.592Z,50.28
2022-09-21T02:27:44.571Z,52.47
2022-09-21T02:30:16.330Z,50.08
2022-09-21T02:32:51.340Z,53.03
2022-09-21T02:35:30.352Z,60.38
2022-09-21T02:38:06.712Z,57.83
2022-09-21T02:40:39.262Z,59.67
2022-09-21T02:43:13.632Z,55.33
2022-09-21T02:45:45.669Z,50.47
2022-09-21T02:48:19.441Z,61.65
2022-09-21T02:50:51.605Z,60.90
2022-09-21T02:53:25.792Z,56.80
2022-09-21T02:55:56.691Z,52.33
2022-09-21T02:58:27.292Z,53.10
2022-09-21T03:00:57.357Z,54.20
2022-09-21T03:03:26.520Z,55.55
2022-09-21T03:05:56.113Z,52.13
2022-09-21T03:08:24.341Z,50.35
2022-09-21T03:10:52.183Z,52.10
2022-09-21T03:13:20.312Z,50.80
2022-09-21T03:15:48.702Z,50.88
2022-09-21T03:18:16.549Z,51.70
2022-09-21T03:20:47.031Z,53.65
2022-09-21T03:23:15.402Z,56.58
2022-09-21T03:25:45.809Z,54.55
2022-09-21T03:28:14.390Z,54.08
2022-09-21T03:30:42.644Z,56.38
2022-09-21T03:33:12.820Z,61.65
2022-09-21T03:35:41.163Z,56.63
2022-09-21T03:38:10.857Z,63.63
2022-09-21T03:40:38.774Z,61.70
2022-09-21T03:43:06.652Z,57.20
2022-09-21T03:45:34.597Z,58.08
2022-09-21T03:48:02.777Z,63.67
2022-09-21T03:50:31.144Z,63.20
2022-09-21T03:52:59.629Z,59.88
2022-09-21T03:55:29.750Z,57.55
2022-09-21T03:57:57.736Z,57.05
2022-09-21T04:00:25.770Z,61.22
2022-09-21T04:02:53.980Z,58.55
2022-09-21T04:05:22.473Z,63.38
2022-09-21T04:07:51.537Z,61.40
2022-09-21T04:10:26.952Z,58.40
2022-09-21T04:13:01.036Z,53.92
2022-09-21T04:15:29.597Z,57.10
2022-09-21T04:17:59.124Z,60.00
2022-09-21T04:20:26.912Z,58.45
2022-09-21T04:22:54.709Z,56.97
2022-09-21T04:25:22.875Z,52.30
2022-09-21T04:27:51.621Z,55.45
2022-09-21T04:30:20.969Z,57.80
2022-09-21T04:32:49.153Z,53.10
2022-09-21T04:35:16.996Z,51.17
2022-09-21T04:37:44.799Z,56.85
2022-09-21T04:40:13.402Z,56.03
2022-09-21T04:42:41.287Z,58.33
2022-09-21T04:45:10.267Z,54.80
2022-09-21T04:47:39.729Z,55.45
2022-09-21T04:50:08.567Z,62.33
2022-09-21T04:52:36.562Z,51.33
2022-09-21T04:55:05.021Z,58.20
2022-09-21T04:57:32.827Z,62.38
2022-09-21T05:00:00.642Z,57.85
2022-09-21T05:02:28.636Z,63.58
2022-09-21T05:04:57.712Z,58.95
2022-09-21T05:07:25.428Z,58.30
2022-09-21T05:10:04.705Z,55.80
2022-09-21T05:12:37.529Z,52.85
2022-09-21T05:15:08.926Z,56.78
2022-09-21T05:17:36.640Z,51.13
2022-09-21T05:20:06.993Z,59.00
2022-09-21T05:22:35.492Z,53.40
2022-09-21T05:25:03.244Z,56.20
2022-09-21T05:27:30.985Z,51.85
2022-09-21T05:29:59.512Z,52.13
2022-09-21T05:32:38.836Z,51.75
2022-09-21T05:35:19.172Z,50.15
2022-09-21T05:37:51.501Z,52.58
2022-09-21T05:40:20.249Z,56.58
2022-09-21T05:42:48.597Z,56.47
2022-09-21T05:45:18.651Z,57.33
2022-09-21T05:48:03.339Z,54.78
2022-09-21T05:50:42.534Z,50.38
2022-09-21T05:53:25.865Z,54.45
2022-09-21T05:55:57.762Z,54.05
2022-09-21T06:01:14.502Z,56.88
2022-09-21T06:03:43.585Z,58.92
2022-09-21T06:06:12.734Z,52.35
2022-09-21T06:08:40.605Z,57.55
2022-09-21T06:11:08.687Z,54.05
2022-09-21T06:13:37.399Z,64.50
2022-09-21T06:16:06.132Z,56.42
2022-09-21T06:18:38.515Z,53.58
2022-09-21T06:23:36.428Z,65.15
2022-09-21T06:26:04.689Z,64.70
2022-09-21T06:28:33.768Z,58.70
2022-09-21T06:31:01.521Z,62.50
2022-09-21T06:33:29.547Z,59.80
2022-09-21T06:35:58.663Z,57.78
2022-09-21T06:38:28.163Z,63.25
2022-09-21T06:41:02.692Z,58.67
2022-09-21T06:43:31.722Z,57.35
2022-09-21T06:46:01.560Z,57.90
2022-09-21T06:48:31.523Z,51.15
2022-09-21T06:51:00.433Z,59.35
2022-09-21T06:53:29.341Z,56.30
2022-09-21T06:56:03.151Z,59.47
2022-09-21T06:58:34.147Z,56.35
2022-09-21T07:01:07.462Z,55.33
2022-09-21T07:03:36.636Z,59.67
2022-09-21T07:06:04.848Z,48.65
2022-09-21T07:11:23.936Z,52.58
2022-09-21T07:13:52.755Z,55.35
2022-09-21T07:16:21.563Z,54.55
2022-09-21T07:18:50.034Z,51.50
2022-09-21T07:21:17.929Z,51.90
2022-09-21T07:23:45.634Z,48.08
2022-09-21T07:26:14.883Z,50.22
2022-09-21T07:28:43.982Z,50.45
2022-09-21T07:31:14.959Z,45.42
2022-09-21T07:33:44.585Z,44.73
2022-09-21T07:36:12.937Z,50.75
2022-09-21T07:38:43.393Z,47.88
2022-09-21T07:41:13.582Z,42.15
2022-09-21T07:43:41.778Z,47.47
2022-09-21T07:46:13.593Z,47.45
2022-09-21T07:48:42.431Z,49.35
2022-09-21T07:51:12.525Z,43.80
2022-09-21T07:53:42.012Z,41.88
2022-09-21T07:56:12.448Z,42.63
2022-09-21T07:58:58.310Z,46.45
2022-09-21T08:01:29.005Z,45.25
2022-09-21T08:03:58.497Z,51.20
2022-09-21T08:06:29.394Z,50.80
2022-09-21T08:08:58.153Z,49.10
2022-09-21T08:11:27.812Z,50.15
2022-09-21T08:13:57.617Z,56.25
2022-09-21T08:16:27.655Z,53.80
2022-09-21T08:18:55.687Z,56.40
2022-09-21T08:21:23.756Z,62.97
2022-09-21T08:23:51.785Z,57.25
2022-09-21T08:26:21.306Z,62.40
2022-09-21T08:28:51.134Z,60.92
2022-09-21T08:31:21.429Z,61.90
2022-09-21T08:33:51.356Z,63.90
2022-09-21T08:36:19.525Z,57.17
2022-09-21T08:38:48.336Z,60.92
2022-09-21T08:41:20.340Z,60.08
2022-09-21T08:46:21.461Z,51.85
2022-09-21T08:48:56.521Z,51.40
2022-09-21T08:51:28.747Z,45.63
2022-09-21T08:53:59.909Z,45.38
2022-09-21T08:56:47.165Z,57.40
2022-09-21T08:59:16.602Z,50.95
2022-09-21T09:01:59.545Z,45.72
2022-09-21T09:04:55.291Z,53.08
2022-09-21T09:07:43.279Z,47.33
2022-09-21T09:10:34.074Z,55.88
2022-09-21T09:13:20.062Z,57.08
2022-09-21T09:16:05.122Z,53.50
2022-09-21T09:18:43.570Z,54.17
2022-09-21T09:21:27.753Z,48.95
2022-09-21T09:24:03.878Z,52.05
2022-09-21T09:26:39.918Z,53.05
2022-09-21T09:29:17.936Z,46.08
2022-09-21T09:31:46.411Z,45.80
2022-09-21T09:34:20.679Z,44.78
2022-09-21T09:36:58.798Z,36.72
2022-09-21T09:39:30.624Z,42.05
2022-09-21T09:42:25.355Z,38.05
2022-09-21T09:45:19.030Z,38.33
2022-09-21T09:48:03.058Z,32.40
2022-09-21T09:50:34.312Z,34.65
2022-09-21T09:53:10.849Z,28.33
2022-09-21T09:55:41.011Z,26.63
2022-09-21T09:58:19.891Z,26.35
2022-09-21T10:00:51.969Z,29.77
2022-09-21T10:03:22.466Z,31.52
2022-09-21T10:05:50.878Z,27.00
2022-09-21T10:08:31.746Z,26.63
2022-09-21T10:10:59.866Z,27.00
2022-09-21T10:13:30.767Z,26.48
2022-09-21T10:16:00.815Z,25.02
2022-09-21T10:18:38.269Z,20.75
2022-09-21T10:21:08.781Z,21.30
2022-09-21T10:23:39.316Z,22.67
2022-09-21T10:26:11.449Z,27.92
2022-09-21T10:28:56.530Z,22.92
2022-09-21T10:31:26.974Z,28.30
2022-09-21T10:34:13.475Z,22.65
2022-09-21T10:36:43.021Z,23.70
2022-09-21T10:39:24.383Z,23.95
2022-09-21T10:42:03.638Z,22.20
2022-09-21T10:44:39.684Z,17.63
2022-09-21T10:47:34.521Z,18.98
2022-09-21T10:50:05.287Z,20.05
2022-09-21T10:52:35.988Z,19.27
2022-09-21T10:55:08.363Z,16.02
2022-09-21T10:57:36.182Z,14.38
2022-09-21T11:00:14.009Z,15.48
2022-09-21T11:02:43.370Z,17.25
2022-09-21T11:05:16.634Z,16.10
2022-09-21T11:07:50.769Z,17.90
2022-09-21T11:10:25.452Z,17.77
2022-09-21T11:13:03.773Z,15.85
2022-09-21T11:15:42.829Z,12.88
2022-09-21T11:18:19.289Z,13.25
2022-09-21T11:20:50.712Z,14.32
2022-09-21T11:23:34.672Z,13.70
2022-09-21T11:26:11.890Z,15.88
2022-09-21T11:28:48.905Z,11.13
2022-09-21T11:31:42.287Z,13.32
2022-09-21T11:34:27.876Z,18.63
2022-09-21T11:37:05.949Z,10.73
2022-09-21T11:39:44.831Z,10.45
2022-09-21T11:42:33.428Z,12.07
2022-09-21T11:45:03.228Z,10.25
2022-09-21T11:47:47.716Z,18.98
2022-09-21T11:50:31.091Z,9.60
2022-09-21T11:53:12.162Z,9.82
2022-09-21T11:55:53.737Z,8.85
2022-09-21T11:58:31.330Z,11.55
2022-09-21T12:01:12.046Z,11.38
2022-09-21T12:03:51.494Z,7.65
2022-09-21T12:06:33.089Z,10.32
2022-09-21T12:11:44.475Z,9.30
2022-09-21T12:14:23.255Z,9.05
2022-09-21T12:16:58.863Z,9.07
2022-09-21T12:19:35.675Z,9.10
2022-09-21T12:22:09.141Z,11.77
2022-09-21T12:24:43.517Z,10.27
2022-09-21T12:27:22.734Z,10.48
2022-09-21T12:29:55.974Z,10.40
2022-09-21T12:32:29.683Z,8.35
2022-09-21T12:35:03.442Z,9.30
2022-09-21T12:37:39.392Z,11.88
2022-09-21T12:40:16.866Z,10.70
2022-09-21T12:42:49.685Z,10.27
2022-09-21T12:45:23.985Z,13.82
2022-09-21T12:47:59.303Z,13.60
2022-09-21T12:50:31.144Z,8.32
2022-09-21T12:55:44.530Z,9.27
2022-09-21T12:58:23.359Z,8.75
2022-09-21T13:01:01.410Z,9.50
2022-09-21T13:03:36.443Z,9.27
2022-09-21T13:06:25.146Z,10.50
2022-09-21T13:08:54.064Z,8.00
2022-09-21T13:11:23.717Z,10.45
2022-09-21T13:13:55.260Z,8.15
2022-09-21T13:16:28.865Z,10.85
2022-09-21T13:18:59.368Z,9.32
2022-09-21T13:21:29.883Z,13.57
2022-09-21T13:24:00.993Z,10.45
2022-09-21T13:26:37.253Z,12.25
2022-09-21T13:29:25.985Z,8.57
2022-09-21T13:31:59.343Z,8.65
2022-09-21T13:34:30.086Z,9.43
2022-09-21T13:37:28.378Z,11.57
2022-09-21T13:40:41.305Z,8.48
2022-09-21T13:43:25.209Z,13.02
2022-09-21T13:45:58.143Z,8.40
2022-09-21T13:48:30.495Z,10.48
2022-09-21T13:51:01.679Z,6.68
2022-09-21T13:53:39.919Z,9.95
2022-09-21T13:56:10.890Z,5.50
2022-09-21T13:58:44.817Z,5.00
2022-09-21T14:01:45.845Z,6.45
2022-09-21T14:04:23.864Z,4.50
2022-09-21T14:06:53.424Z,6.97
2022-09-21T14:09:25.544Z,7.15
2022-09-21T14:11:58.018Z,7.38
2022-09-21T14:14:31.496Z,7.38
2022-09-21T14:17:01.145Z,9.40
2022-09-21T14:20:08.245Z,7.05
2022-09-21T14:22:43.429Z,7.07
2022-09-21T14:25:47.744Z,6.07
2022-09-21T14:28:17.688Z,8.10
2022-09-21T14:30:52.746Z,9.40
2022-09-21T14:33:27.735Z,5.00
2022-09-21T14:35:57.368Z,7.05
2022-09-21T14:38:30.363Z,10.20
2022-09-21T14:41:03.220Z,6.68
2022-09-21T14:43:35.372Z,6.63
2022-09-21T14:46:30.455Z,7.05
2022-09-21T14:49:12.569Z,6.28
2022-09-21T14:51:55.645Z,4.15
2022-09-21T14:54:41.424Z,3.28
2022-09-21T14:57:34.799Z,4.15
2022-09-21T15:00:15.636Z,4.03
2022-09-21T15:02:45.624Z,4.30
2022-09-21T15:05:32.418Z,3.90
2022-09-21T15:08:39.092Z,3.50
2022-09-21T15:11:17.653Z,3.80
2022-09-21T15:14:16.662Z,5.95
2022-09-21T15:16:47.105Z,2.92
2022-09-21T15:19:22.244Z,4.10
2022-09-21T15:21:52.381Z,2.70
2022-09-21T15:24:24.820Z,2.53
2022-09-21T15:29:27.953Z,4.93
2022-09-21T15:31:56.342Z,3.95
2022-09-21T15:34:24.972Z,3.92
2022-09-21T15:36:53.307Z,3.35
2022-09-21T15:39:23.686Z,4.35
2022-09-21T15:42:09.148Z,7.50
2022-09-21T15:44:39.412Z,4.07
2022-09-21T15:47:11.136Z,4.45
2022-09-21T15:49:42.761Z,5.75
2022-09-21T15:52:15.668Z,4.05
2022-09-21T15:54:46.148Z,4.22
2022-09-21T15:57:39.257Z,4.75
2022-09-21T16:00:23.138Z,3.45
2022-09-21T16:03:19.017Z,2.92
2022-09-21T16:05:49.986Z,3.45
2022-09-21T16:08:23.421Z,4.17
2022-09-21T16:10:51.445Z,5.72
2022-09-21T16:13:41.082Z,3.78
2022-09-21T16:16:10.884Z,8.23
2022-09-21T16:18:46.035Z,4.78
2022-09-21T16:21:21.951Z,5.60
2022-09-21T16:23:51.793Z,4.97
2022-09-21T16:26:23.065Z,7.53
2022-09-21T16:28:59.881Z,6.50
2022-09-21T16:31:31.933Z,8.90
2022-09-21T16:34:07.745Z,9.85
2022-09-21T16:36:43.644Z,7.30
2022-09-21T16:39:17.273Z,9.05
2022-09-21T16:41:51.876Z,8.55
2022-09-21T16:44:25.384Z,8.65
2022-09-21T16:46:56.074Z,7.18
2022-09-21T16:49:30.190Z,6.30
2022-09-21T16:51:59.230Z,5.15
2022-09-21T16:54:28.476Z,5.15
2022-09-21T16:56:57.996Z,6.88
2022-09-21T16:59:28.404Z,7.20
2022-09-21T17:01:59.037Z,7.45
2022-09-21T17:04:28.657Z,7.18
2022-09-21T17:06:56.740Z,5.60
2022-09-21T17:09:30.042Z,10.48
2022-09-21T17:12:01.209Z,11.80
2022-09-21T17:14:35.333Z,9.55
2022-09-21T17:17:08.279Z,8.80
2022-09-21T17:19:36.822Z,12.05
2022-09-21T17:22:06.800Z,11.10
2022-09-21T17:24:52.472Z,10.57
2022-09-21T17:27:23.687Z,10.73
2022-09-21T17:29:55.063Z,10.10
2022-09-21T17:32:26.016Z,10.85
2022-09-21T17:34:59.690Z,15.07
2022-09-21T17:37:27.841Z,13.40
2022-09-21T17:39:55.629Z,8.70
2022-09-21T17:42:25.584Z,9.02
2022-09-21T17:45:21.541Z,9.35
2022-09-21T17:47:50.799Z,10.57
2022-09-21T17:50:23.957Z,7.32
2022-09-21T17:53:09.865Z,8.38
2022-09-21T17:55:39.553Z,9.15
2022-09-21T17:58:20.418Z,11.23
2022-09-21T18:01:01.666Z,10.63
2022-09-21T18:03:32.524Z,13.90
2022-09-21T18:06:01.492Z,10.02
2022-09-21T18:08:30.331Z,10.40
2022-09-21T18:11:13.484Z,7.97
2022-09-21T18:13:53.926Z,7.80
2022-09-21T18:16:28.163Z,8.80
2022-09-21T18:19:07.409Z,7.43
2022-09-21T18:21:40.702Z,5.05
2022-09-21T18:24:19.947Z,8.98
2022-09-21T18:26:49.173Z,7.70
2022-09-21T18:29:39.375Z,5.30
2022-09-21T18:32:29.392Z,7.35
2022-09-21T18:35:10.480Z,5.63
2022-09-21T18:37:46.962Z,4.65
2022-09-21T18:40:23.299Z,5.78
2022-09-21T18:42:59.191Z,5.70
2022-09-21T18:45:31.814Z,6.13
2022-09-21T18:50:52.106Z,8.07
2022-09-21T18:53:28.123Z,8.38
2022-09-21T18:55:56.873Z,12.27
2022-09-21T18:58:25.157Z,7.90
2022-09-21T19:00:53.870Z,13.52
2022-09-21T19:03:23.884Z,16.08
2022-09-21T19:06:23.243Z,13.13
2022-09-21T19:08:59.668Z,13.25
2022-09-21T19:11:34.968Z,15.95
2022-09-21T19:14:12.001Z,13.77
2022-09-21T19:16:47.858Z,16.00
2022-09-21T19:19:29.949Z,19.88
2022-09-21T19:22:06.391Z,17.63
2022-09-21T19:24:42.531Z,31.50
2022-09-21T19:27:19.852Z,19.52
2022-09-21T19:30:01.489Z,17.92
2022-09-21T19:32:36.431Z,22.77
2022-09-21T19:35:18.925Z,20.63
2022-09-21T19:37:47.592Z,21.90
2022-09-21T19:40:16.818Z,24.00
2022-09-21T19:43:06.154Z,22.50
2022-09-21T19:45:46.020Z,21.48
2022-09-21T19:48:16.768Z,26.73
2022-09-21T19:50:54.623Z,26.17
2022-09-21T19:53:41.140Z,27.25
2022-09-21T19:56:31.624Z,28.38
2022-09-21T19:59:17.785Z,26.10
2022-09-21T20:01:52.511Z,29.25
2022-09-21T20:04:32.141Z,28.33
2022-09-21T20:07:18.813Z,33.65
2022-09-21T20:09:57.386Z,35.85
2022-09-21T20:12:31.397Z,31.10
2022-09-21T20:15:08.024Z,36.08
2022-09-21T20:17:41.000Z,33.28
2022-09-21T20:20:16.456Z,33.20
2022-09-21T20:22:46.405Z,30.45
2022-09-21T20:25:19.987Z,32.38
2022-09-21T20:27:50.654Z,28.65
2022-09-21T20:30:21.082Z,34.88
2022-09-21T20:32:52.949Z,35.42
2022-09-21T20:35:23.007Z,36.65
2022-09-21T20:37:54.434Z,34.25
2022-09-21T20:40:26.306Z,30.17
2022-09-21T20:42:54.420Z,32.67
2022-09-21T20:45:22.504Z,31.95
2022-09-21T20:47:50.594Z,35.00
2022-09-21T20:50:19.690Z,36.63
2022-09-21T20:52:47.618Z,41.22
2022-09-21T20:55:20.184Z,40.03
2022-09-21T20:57:48.778Z,38.35
2022-09-21T21:00:18.255Z,35.15
2022-09-21T21:02:46.043Z,43.22
2022-09-21T21:05:14.209Z,39.05
2022-09-21T21:07:43.346Z,41.17
2022-09-21T21:10:14.080Z,41.80
2022-09-21T21:12:43.888Z,39.20
2022-09-21T21:15:12.654Z,42.17
2022-09-21T21:17:42.040Z,44.38
2022-09-21T21:20:11.147Z,41.13
2022-09-21T21:22:39.113Z,45.92
2022-09-21T21:25:07.297Z,44.00
2022-09-21T21:27:36.056Z,43.63
2022-09-21T21:30:06.930Z,42.97
2022-09-21T21:32:35.272Z,45.47
2022-09-21T21:35:03.620Z,49.80
2022-09-21T21:37:31.433Z,42.65
2022-09-21T21:39:59.285Z,43.08
2022-09-21T21:42:29.365Z,44.58
2022-09-21T21:44:57.652Z,44.58
2022-09-21T21:47:42.037Z,43.53
2022-09-21T21:50:12.031Z,48.95
2022-09-21T21:52:40.586Z,46.13
2022-09-21T21:55:09.116Z,50.05
2022-09-21T21:57:37.519Z,48.95
2022-09-21T22:00:08.266Z,44.90
2022-09-21T22:02:37.472Z,47.78
2022-09-21T22:05:06.373Z,48.38
2022-09-21T22:07:34.097Z,42.95
2022-09-21T22:10:01.823Z,42.30
2022-09-21T22:12:29.992Z,51.35
2022-09-21T22:14:57.821Z,43.08
2022-09-21T22:17:25.521Z,44.00
2022-09-21T22:19:55.699Z,37.85
2022-09-21T22:22:23.531Z,43.70
2022-09-21T22:24:51.220Z,48.75
2022-09-21T22:27:19.334Z,53.65
2022-09-21T22:29:47.170Z,43.03
2022-09-21T22:32:14.869Z,48.10
2022-09-21T22:34:42.925Z,49.05
2022-09-21T22:37:12.440Z,45.53
2022-09-21T22:39:40.129Z,43.42
2022-09-21T22:42:11.048Z,43.25
2022-09-21T22:44:38.893Z,48.95
2022-09-21T22:47:06.758Z,52.38
2022-09-21T22:49:34.735Z,48.45
2022-09-21T22:52:02.939Z,50.83
2022-09-21T22:54:32.001Z,47.53
2022-09-21T22:57:00.051Z,53.72
2022-09-21T22:59:27.982Z,52.20
2022-09-21T23:01:56.369Z,51.65
2022-09-21T23:04:24.726Z,55.53
2022-09-21T23:06:52.738Z,53.70
2022-09-21T23:09:22.121Z,57.08
2022-09-21T23:11:53.501Z,53.30
2022-09-21T23:14:22.637Z,57.00
2022-09-21T23:16:51.032Z,54.95
2022-09-21T23:19:19.097Z,56.33
2022-09-21T23:21:50.282Z,63.22
2022-09-21T23:24:19.171Z,58.67
2022-09-21T23:26:51.084Z,63.70
2022-09-21T23:29:20.393Z,54.47
2022-09-21T23:31:48.850Z,59.88
2022-09-21T23:34:17.134Z,53.30
2022-09-21T23:36:46.289Z,54.00
2022-09-21T23:39:16.004Z,57.90
2022-09-21T23:41:44.732Z,53.72
2022-09-21T23:44:12.683Z,56.03
2022-09-21T23:46:43.609Z,51.30
2022-09-21T23:49:11.597Z,46.85
2022-09-21T23:51:39.908Z,47.95
2022-09-21T23:54:08.614Z,47.55
2022-09-21T23:56:36.646Z,46.90
2022-09-21T23:59:05.448Z,49.10
